createdAt,value
2022-09-19T00:01:12.578Z,2.30
2022-09-19T00:03:44.323Z,2.43
2022-09-19T00:06:13.748Z,2.47
2022-09-19T00:08:44.495Z,2.63
2022-09-19T00:11:13.920Z,2.03
2022-09-19T00:13:46.556Z,1.83
2022-09-19T00:16:14.810Z,2.77
2022-09-19T00:18:43.912Z,2.37
2022-09-19T00:21:11.679Z,1.87
2022-09-19T00:23:56.769Z,2.67
2022-09-19T00:26:24.633Z,2.90
2022-09-19T00:28:52.381Z,2.80
2022-09-19T00:31:21.941Z,2.60
2022-09-19T00:33:51.726Z,2.27
2022-09-19T00:36:20.580Z,2.50
2022-09-19T00:38:48.733Z,2.20
2022-09-19T00:41:17.968Z,2.90
2022-09-19T00:43:52.297Z,2.13
2022-09-19T00:46:22.222Z,2.20
2022-09-19T00:48:54.808Z,2.50
2022-09-19T00:51:29.727Z,2.43
2022-09-19T00:54:00.650Z,2.00
2022-09-19T00:56:29.545Z,2.60
2022-09-19T00:58:59.422Z,2.43
2022-09-19T01:01:27.479Z,2.33
2022-09-19T01:03:56.669Z,2.47
2022-09-19T01:06:41.273Z,2.27
2022-09-19T01:09:28.422Z,2.23
2022-09-19T01:12:18.099Z,2.37
2022-09-19T01:15:06.070Z,2.23
2022-09-19T01:17:47.168Z,2.23
2022-09-19T01:20:49.313Z,2.80
2022-09-19T01:23:32.568Z,3.03
2022-09-19T01:26:09.740Z,3.13
2022-09-19T01:28:43.411Z,3.20
2022-09-19T01:31:19.791Z,2.77
2022-09-19T01:33:54.430Z,3.53
2022-09-19T01:36:27.483Z,2.80
2022-09-19T01:38:58.498Z,3.57
2022-09-19T01:41:26.280Z,3.80
2022-09-19T01:43:55.628Z,2.40
2022-09-19T01:46:33.008Z,2.40
2022-09-19T01:49:08.039Z,2.30
2022-09-19T01:51:42.857Z,2.50
2022-09-19T01:54:27.041Z,2.50
2022-09-19T01:57:02.772Z,2.33
2022-09-19T01:59:46.227Z,2.17
2022-09-19T02:02:23.583Z,2.73
2022-09-19T02:04:59.414Z,2.47
2022-09-19T02:07:42.311Z,3.00
2022-09-19T02:10:15.608Z,2.40
2022-09-19T02:12:46.948Z,2.20
2022-09-19T02:15:19.868Z,2.67
2022-09-19T02:17:53.719Z,1.90
2022-09-19T02:20:25.946Z,2.60
2022-09-19T02:22:58.300Z,1.97
2022-09-19T02:25:34.325Z,2.23
2022-09-19T02:28:06.694Z,2.70
2022-09-19T02:30:37.168Z,2.50
2022-09-19T02:33:08.319Z,3.40
2022-09-19T02:35:44.588Z,3.60
2022-09-19T02:38:20.802Z,3.33
2022-09-19T02:40:58.469Z,2.90
2022-09-19T02:43:37.674Z,4.00
2022-09-19T02:46:13.472Z,3.10
2022-09-19T02:48:52.337Z,3.43
2022-09-19T02:51:25.015Z,3.00
2022-09-19T02:53:57.759Z,2.80
2022-09-19T02:56:30.111Z,2.90
2022-09-19T02:59:01.332Z,2.80
2022-09-19T03:01:32.209Z,2.23
2022-09-19T03:04:16.127Z,2.57
2022-09-19T03:06:53.487Z,2.17
2022-09-19T03:09:25.908Z,2.17
2022-09-19T03:12:00.962Z,2.60
2022-09-19T03:14:32.204Z,2.60
2022-09-19T03:17:03.133Z,2.60
2022-09-19T03:19:33.327Z,2.63
2022-09-19T03:22:01.118Z,2.03
2022-09-19T03:24:28.925Z,2.67
2022-09-19T03:26:56.683Z,2.37
2022-09-19T03:29:24.477Z,2.30
2022-09-19T03:31:53.572Z,2.23
2022-09-19T03:34:22.916Z,2.80
2022-09-19T03:36:50.712Z,2.50
2022-09-19T03:39:18.984Z,2.50
2022-09-19T03:41:47.137Z,3.00
2022-09-19T03:44:15.195Z,3.00
2022-09-19T03:46:47.433Z,2.50
2022-09-19T03:49:15.361Z,2.33
2022-09-19T03:51:47.280Z,2.40
2022-09-19T03:54:15.569Z,2.87
2022-09-19T03:56:43.292Z,2.97
2022-09-19T03:59:11.061Z,2.10
2022-09-19T04:01:38.883Z,2.80
2022-09-19T04:04:06.839Z,2.13
2022-09-19T04:06:34.701Z,2.47
2022-09-19T04:09:03.840Z,2.90
2022-09-19T04:11:31.704Z,2.10
2022-09-19T04:14:00.492Z,2.87
2022-09-19T04:16:28.242Z,2.43
2022-09-19T04:18:56.356Z,2.20
2022-09-19T04:21:24.760Z,2.10
2022-09-19T04:23:52.684Z,2.33
2022-09-19T04:26:22.300Z,2.33
2022-09-19T04:28:50.189Z,2.40
2022-09-19T04:31:18.681Z,2.93
2022-09-19T04:33:46.780Z,2.83
2022-09-19T04:36:14.700Z,2.53
2022-09-19T04:38:42.444Z,2.40
2022-09-19T04:41:10.943Z,2.10
2022-09-19T04:43:40.148Z,2.20
2022-09-19T04:46:08.209Z,2.80
2022-09-19T04:48:36.122Z,1.90
2022-09-19T04:51:05.783Z,2.60
2022-09-19T04:53:33.990Z,2.50
2022-09-19T04:56:04.514Z,2.57
2022-09-19T04:58:32.233Z,2.20
2022-09-19T05:01:01.425Z,3.27
2022-09-19T05:03:31.686Z,2.90
2022-09-19T05:06:00.220Z,2.83
2022-09-19T05:08:30.014Z,2.57
2022-09-19T05:10:59.160Z,2.97
2022-09-19T05:13:29.168Z,2.57
2022-09-19T05:15:57.623Z,2.90
2022-09-19T05:18:26.752Z,2.70
2022-09-19T05:20:56.383Z,3.00
2022-09-19T05:23:25.532Z,2.20
2022-09-19T05:25:55.081Z,1.87
2022-09-19T05:28:28.547Z,1.73
2022-09-19T05:30:56.962Z,2.00
2022-09-19T05:33:27.602Z,2.07
2022-09-19T05:35:56.991Z,1.70
2022-09-19T05:38:25.364Z,2.03
2022-09-19T05:40:54.342Z,2.47
2022-09-19T05:43:23.085Z,2.50
2022-09-19T05:45:51.283Z,2.07
2022-09-19T05:48:19.309Z,2.13
2022-09-19T05:50:50.115Z,2.10
2022-09-19T05:53:36.555Z,2.97
2022-09-19T05:56:09.452Z,2.30
2022-09-19T05:58:38.742Z,1.70
2022-09-19T06:01:08.023Z,1.93
2022-09-19T06:03:37.062Z,2.80
2022-09-19T06:06:12.680Z,2.43
2022-09-19T06:08:41.463Z,2.43
2022-09-19T06:11:09.870Z,2.47
2022-09-19T06:13:55.097Z,2.10
2022-09-19T06:16:23.111Z,2.50
2022-09-19T06:18:51.081Z,2.57
2022-09-19T06:21:20.159Z,2.20
2022-09-19T06:23:47.906Z,2.20
2022-09-19T06:26:16.480Z,2.37
2022-09-19T06:28:44.213Z,2.67
2022-09-19T06:31:11.994Z,2.50
2022-09-19T06:33:43.623Z,2.17
2022-09-19T06:36:12.324Z,2.87
2022-09-19T06:38:42.239Z,2.13
2022-09-19T06:41:10.859Z,2.37
2022-09-19T06:43:38.604Z,2.17
2022-09-19T06:46:07.412Z,2.67
2022-09-19T06:48:36.469Z,2.50
2022-09-19T06:51:04.590Z,2.23
2022-09-19T06:53:32.572Z,1.93
2022-09-19T06:56:01.962Z,2.03
2022-09-19T06:58:29.718Z,2.40
2022-09-19T07:00:58.202Z,2.27
2022-09-19T07:03:26.010Z,2.00
2022-09-19T07:05:53.727Z,1.60
2022-09-19T07:08:21.470Z,1.90
2022-09-19T07:10:49.207Z,1.90
2022-09-19T07:13:19.133Z,2.00
2022-09-19T07:15:46.860Z,2.10
2022-09-19T07:18:15.222Z,2.23
2022-09-19T07:20:43.756Z,2.00
2022-09-19T07:23:15.315Z,1.97
2022-09-19T07:25:44.013Z,1.97
2022-09-19T07:28:13.847Z,1.67
2022-09-19T07:30:44.565Z,2.03
2022-09-19T07:33:14.634Z,2.00
2022-09-19T07:35:43.526Z,1.80
2022-09-19T07:38:13.996Z,1.87
2022-09-19T07:40:42.705Z,1.60
2022-09-19T07:43:12.403Z,1.33
2022-09-19T07:45:40.185Z,1.80
2022-09-19T07:48:09.345Z,1.80
2022-09-19T07:50:37.499Z,1.53
2022-09-19T07:53:07.190Z,1.77
2022-09-19T07:55:36.241Z,1.57
2022-09-19T07:58:05.804Z,1.67
2022-09-19T08:00:35.842Z,1.70
2022-09-19T08:03:05.569Z,2.00
2022-09-19T08:05:37.803Z,1.90
2022-09-19T08:08:06.683Z,2.00
2022-09-19T08:10:35.272Z,1.50
2022-09-19T08:13:03.737Z,1.97
2022-09-19T08:15:33.209Z,1.50
2022-09-19T08:18:04.296Z,1.47
2022-09-19T08:20:34.624Z,1.93
2022-09-19T08:23:08.489Z,1.80
2022-09-19T08:25:39.181Z,1.97
2022-09-19T08:28:07.392Z,1.57
2022-09-19T08:30:36.454Z,1.57
2022-09-19T08:33:12.173Z,1.33
2022-09-19T08:35:41.036Z,1.57
2022-09-19T08:38:12.556Z,1.83
2022-09-19T08:40:57.092Z,1.43
2022-09-19T08:43:36.543Z,1.70
2022-09-19T08:46:17.194Z,2.10
2022-09-19T08:48:54.450Z,1.80
2022-09-19T08:51:27.150Z,1.73
2022-09-19T08:54:03.878Z,1.80
2022-09-19T08:56:32.362Z,1.30
2022-09-19T08:59:05.958Z,1.73
2022-09-19T09:01:38.028Z,1.77
2022-09-19T09:04:19.172Z,2.00
2022-09-19T09:06:59.651Z,1.73
2022-09-19T09:09:42.352Z,1.65
2022-09-19T09:12:18.496Z,1.40
2022-09-19T09:15:18.787Z,1.60
2022-09-19T09:17:58.289Z,1.50
2022-09-19T09:20:41.267Z,1.80
2022-09-19T09:23:15.248Z,1.47
2022-09-19T09:25:50.472Z,1.57
2022-09-19T09:28:27.382Z,1.67
2022-09-19T09:31:08.411Z,1.65
2022-09-19T09:33:43.042Z,1.60
2022-09-19T09:36:16.609Z,1.90
2022-09-19T09:38:51.339Z,2.07
2022-09-19T09:41:44.008Z,2.22
2022-09-19T09:44:25.670Z,1.40
2022-09-19T09:47:00.769Z,1.27
2022-09-19T09:49:30.924Z,1.38
2022-09-19T09:52:17.029Z,1.30
2022-09-19T09:55:18.876Z,1.10
2022-09-19T09:57:55.841Z,1.40
2022-09-19T10:00:41.199Z,2.00
2022-09-19T10:03:37.210Z,1.60
2022-09-19T10:06:11.697Z,1.45
2022-09-19T10:08:45.427Z,1.83
2022-09-19T10:14:09.950Z,1.60
2022-09-19T10:16:38.288Z,1.38
2022-09-19T10:19:15.174Z,1.35
2022-09-19T10:21:42.896Z,1.33
2022-09-19T10:24:48.695Z,1.75
2022-09-19T10:27:19.593Z,1.65
2022-09-19T10:29:54.358Z,1.60
2022-09-19T10:32:25.485Z,1.40
2022-09-19T10:34:53.430Z,1.73
2022-09-19T10:37:24.393Z,1.17
2022-09-19T10:39:52.108Z,1.60
2022-09-19T10:42:42.762Z,1.63
2022-09-19T10:45:26.590Z,1.23
2022-09-19T10:47:57.538Z,1.40
2022-09-19T10:50:26.128Z,1.20
2022-09-19T10:53:02.276Z,1.42
2022-09-19T10:55:34.440Z,1.20
2022-09-19T10:58:05.730Z,0.90
2022-09-19T11:00:48.579Z,1.48
2022-09-19T11:03:25.891Z,1.00
2022-09-19T11:06:08.890Z,1.00
2022-09-19T11:08:43.756Z,1.30
2022-09-19T11:11:29.252Z,1.63
2022-09-19T11:14:17.335Z,1.30
2022-09-19T11:17:01.874Z,1.50
2022-09-19T11:19:50.418Z,1.30
2022-09-19T11:22:33.755Z,1.20
2022-09-19T11:25:13.347Z,1.00
2022-09-19T11:28:07.218Z,1.00
2022-09-19T11:30:45.185Z,0.85
2022-09-19T11:36:34.840Z,0.70
2022-09-19T11:42:11.709Z,0.85
2022-09-19T11:45:00.026Z,0.85
2022-09-19T11:48:02.565Z,0.82
2022-09-19T11:51:00.944Z,0.80
2022-09-19T11:54:03.297Z,0.80
2022-09-19T11:56:46.488Z,0.80
2022-09-19T11:59:28.031Z,1.00
2022-09-19T12:02:10.375Z,1.00
2022-09-19T12:04:46.325Z,0.98
2022-09-19T12:07:32.429Z,0.95
2022-09-19T12:10:11.522Z,1.20
2022-09-19T12:12:43.889Z,0.80
2022-09-19T12:15:24.088Z,1.10
2022-09-19T12:18:03.637Z,1.27
2022-09-19T12:20:35.887Z,1.00
2022-09-19T12:23:28.619Z,1.45
2022-09-19T12:25:59.744Z,0.95
2022-09-19T12:28:32.730Z,0.90
2022-09-19T12:31:04.451Z,1.05
2022-09-19T12:33:41.779Z,0.90
2022-09-19T12:36:21.497Z,1.02
2022-09-19T12:38:59.414Z,1.15
2022-09-19T12:41:38.155Z,0.90
2022-09-19T12:44:14.957Z,1.00
2022-09-19T12:46:56.088Z,1.00
2022-09-19T12:49:31.449Z,1.25
2022-09-19T12:52:05.290Z,1.25
2022-09-19T12:54:40.874Z,1.00
2022-09-19T12:57:14.066Z,1.30
2022-09-19T12:59:42.852Z,1.00
2022-09-19T13:02:25.035Z,1.00
2022-09-19T13:05:01.330Z,1.00
2022-09-19T13:07:36.164Z,1.02
2022-09-19T13:10:19.036Z,0.88
2022-09-19T13:12:52.297Z,0.80
2022-09-19T13:15:26.803Z,0.73
2022-09-19T13:18:12.156Z,0.80
2022-09-19T13:20:59.953Z,1.05
2022-09-19T13:23:33.843Z,0.90
2022-09-19T13:26:25.958Z,0.63
2022-09-19T13:28:55.057Z,0.80
2022-09-19T13:31:26.193Z,0.70
2022-09-19T13:33:55.769Z,0.73
2022-09-19T13:36:47.205Z,1.20
2022-09-19T13:39:53.835Z,1.10
2022-09-19T13:42:29.663Z,1.08
2022-09-19T13:45:06.426Z,1.40
2022-09-19T13:47:42.083Z,1.30
2022-09-19T13:50:21.638Z,0.90
2022-09-19T13:53:02.457Z,1.00
2022-09-19T13:55:34.733Z,0.97
2022-09-19T13:58:32.751Z,1.10
2022-09-19T14:01:16.203Z,0.93
2022-09-19T14:03:47.366Z,0.80
2022-09-19T14:06:21.898Z,1.00
2022-09-19T14:12:44.339Z,1.23
2022-09-19T14:15:42.640Z,0.98
2022-09-19T14:18:34.223Z,1.00
2022-09-19T14:21:03.983Z,1.38
2022-09-19T14:23:33.982Z,1.10
2022-09-19T14:26:03.337Z,1.40
2022-09-19T14:28:55.287Z,1.30
2022-09-19T14:31:40.323Z,1.48
2022-09-19T14:34:52.391Z,1.50
2022-09-19T14:37:44.392Z,1.50
2022-09-19T14:40:44.204Z,1.52
2022-09-19T14:43:45.827Z,1.20
2022-09-19T14:46:23.717Z,1.30
2022-09-19T14:49:01.689Z,1.20
2022-09-19T14:51:39.120Z,1.10
2022-09-19T14:54:16.836Z,1.02
2022-09-19T14:56:58.725Z,1.08
2022-09-19T14:59:26.523Z,0.93
2022-09-19T15:01:56.287Z,0.98
2022-09-19T15:04:27.849Z,0.80
2022-09-19T15:06:59.533Z,0.90
2022-09-19T15:09:30.146Z,1.00
2022-09-19T15:12:00.309Z,1.13
2022-09-19T15:14:30.551Z,1.40
2022-09-19T15:17:11.709Z,1.00
2022-09-19T15:19:43.689Z,1.20
2022-09-19T15:22:30.153Z,1.30
2022-09-19T15:25:01.037Z,1.50
2022-09-19T15:27:32.147Z,1.10
2022-09-19T15:30:10.683Z,1.42
2022-09-19T15:32:40.905Z,1.48
2022-09-19T15:35:14.968Z,1.63
2022-09-19T15:37:49.717Z,1.63
2022-09-19T15:40:22.947Z,1.40
2022-09-19T15:42:50.861Z,1.35
2022-09-19T15:45:45.773Z,1.30
2022-09-19T15:48:19.893Z,1.08
2022-09-19T15:50:50.070Z,1.25
2022-09-19T15:53:22.930Z,1.00
2022-09-19T15:56:10.822Z,0.80
2022-09-19T15:58:43.303Z,1.20
2022-09-19T16:01:22.583Z,1.30
2022-09-19T16:04:00.558Z,1.40
2022-09-19T16:06:57.295Z,1.00
2022-09-19T16:09:39.439Z,0.80
2022-09-19T16:12:42.646Z,0.90
2022-09-19T16:15:24.440Z,1.17
2022-09-19T16:18:18.724Z,1.10
2022-09-19T16:20:54.940Z,1.20
2022-09-19T16:23:25.480Z,0.90
2022-09-19T16:25:57.641Z,1.00
2022-09-19T16:28:30.903Z,0.97
2022-09-19T16:31:05.122Z,1.07
2022-09-19T16:33:35.451Z,0.80
2022-09-19T16:36:13.999Z,0.90
2022-09-19T16:39:01.835Z,1.17
2022-09-19T16:41:35.645Z,1.30
2022-09-19T16:44:14.237Z,1.23
2022-09-19T16:46:42.253Z,1.37
2022-09-19T16:49:10.041Z,1.03
2022-09-19T16:51:37.844Z,1.40
2022-09-19T16:54:06.252Z,0.90
2022-09-19T16:56:35.481Z,0.90
2022-09-19T16:59:05.790Z,1.10
2022-09-19T17:01:33.740Z,0.93
2022-09-19T17:04:01.533Z,1.73
2022-09-19T17:06:30.433Z,1.10
2022-09-19T17:08:58.337Z,1.10
2022-09-19T17:11:27.315Z,1.10
2022-09-19T17:13:56.574Z,1.00
2022-09-19T17:16:24.593Z,1.17
2022-09-19T17:18:52.689Z,1.20
2022-09-19T17:21:21.954Z,0.83
2022-09-19T17:23:50.713Z,1.30
2022-09-19T17:26:18.539Z,1.30
2022-09-19T17:28:46.264Z,1.37
2022-09-19T17:31:15.750Z,1.13
2022-09-19T17:33:43.600Z,1.13
2022-09-19T17:36:13.780Z,1.00
2022-09-19T17:38:41.634Z,1.17
2022-09-19T17:41:11.528Z,1.00
2022-09-19T17:43:40.164Z,1.00
2022-09-19T17:46:12.998Z,1.10
2022-09-19T17:48:43.057Z,1.07
2022-09-19T17:51:13.094Z,1.40
2022-09-19T17:53:42.881Z,1.40
2022-09-19T17:56:12.736Z,1.03
2022-09-19T17:58:40.916Z,1.03
2022-09-19T18:01:29.063Z,0.83
2022-09-19T18:03:58.717Z,0.90
2022-09-19T18:06:27.519Z,1.10
2022-09-19T18:08:55.248Z,1.40
2022-09-19T18:11:23.493Z,0.90
2022-09-19T18:13:52.485Z,0.83
2022-09-19T18:16:21.511Z,1.20
2022-09-19T18:18:49.762Z,1.07
2022-09-19T18:21:19.036Z,1.00
2022-09-19T18:23:50.489Z,1.00
2022-09-19T18:26:22.469Z,1.37
2022-09-19T18:28:54.735Z,0.90
2022-09-19T18:31:23.611Z,1.03
2022-09-19T18:33:52.001Z,1.40
2022-09-19T18:36:22.974Z,1.20
2022-09-19T18:38:51.760Z,1.57
2022-09-19T18:41:19.881Z,1.20
2022-09-19T18:43:47.634Z,1.07
2022-09-19T18:46:20.351Z,1.30
2022-09-19T18:48:49.491Z,1.50
2022-09-19T18:51:18.765Z,1.40
2022-09-19T18:53:50.106Z,1.40
2022-09-19T18:56:18.583Z,1.97
2022-09-19T18:58:50.695Z,1.73
2022-09-19T19:01:19.390Z,1.20
2022-09-19T19:03:51.281Z,1.23
2022-09-19T19:06:21.877Z,1.37
2022-09-19T19:08:52.624Z,1.30
2022-09-19T19:11:22.139Z,1.60
2022-09-19T19:13:50.063Z,1.60
2022-09-19T19:16:20.504Z,1.80
2022-09-19T19:18:52.685Z,1.90
2022-09-19T19:21:23.568Z,1.80
2022-09-19T19:23:54.963Z,2.30
2022-09-19T19:26:23.529Z,2.10
2022-09-19T19:28:53.105Z,2.53
2022-09-19T19:31:21.081Z,2.17
2022-09-19T19:33:48.975Z,2.40
2022-09-19T19:36:19.594Z,2.13
2022-09-19T19:38:49.262Z,2.33
2022-09-19T19:41:20.593Z,2.80
2022-09-19T19:43:48.924Z,2.43
2022-09-19T19:46:17.780Z,2.70
2022-09-19T19:48:48.724Z,2.90
2022-09-19T19:51:18.507Z,2.90
2022-09-19T19:53:47.101Z,2.67
2022-09-19T19:56:17.001Z,2.37
2022-09-19T19:58:46.618Z,2.40
2022-09-19T20:01:17.714Z,2.90
2022-09-19T20:03:46.630Z,2.33
2022-09-19T20:06:19.121Z,2.43
2022-09-19T20:08:47.186Z,2.03
2022-09-19T20:11:15.450Z,2.33
2022-09-19T20:13:43.412Z,1.70
2022-09-19T20:16:14.523Z,1.97
2022-09-19T20:18:44.117Z,1.63
2022-09-19T20:21:14.546Z,2.10
2022-09-19T20:23:42.884Z,2.03
2022-09-19T20:26:13.449Z,2.20
2022-09-19T20:28:41.840Z,2.20
2022-09-19T20:31:12.176Z,1.80
2022-09-19T20:33:40.208Z,2.00
2022-09-19T20:36:09.488Z,2.20
2022-09-19T20:38:38.000Z,1.50
2022-09-19T20:41:07.732Z,1.77
2022-09-19T20:43:36.072Z,1.77
2022-09-19T20:46:06.486Z,1.93
2022-09-19T20:48:37.029Z,2.13
2022-09-19T20:51:07.287Z,1.73
2022-09-19T20:53:36.732Z,1.90
2022-09-19T20:56:05.386Z,2.50
2022-09-19T20:58:33.600Z,2.20
2022-09-19T21:01:03.857Z,2.00
2022-09-19T21:03:33.047Z,2.10
2022-09-19T21:06:03.529Z,2.03
2022-09-19T21:08:32.939Z,2.17
2022-09-19T21:11:02.586Z,2.20
2022-09-19T21:13:32.066Z,1.93
2022-09-19T21:16:06.937Z,2.10
2022-09-19T21:18:35.484Z,2.03
2022-09-19T21:21:06.608Z,2.47
2022-09-19T21:23:34.923Z,2.23
2022-09-19T21:26:04.201Z,2.40
2022-09-19T21:28:33.542Z,2.57
2022-09-19T21:31:01.828Z,2.77
2022-09-19T21:33:30.804Z,3.13
2022-09-19T21:35:59.132Z,2.50
2022-09-19T21:38:29.071Z,2.57
2022-09-19T21:40:57.721Z,2.83
2022-09-19T21:43:26.190Z,2.80
2022-09-19T21:46:00.932Z,2.90
2022-09-19T21:48:29.260Z,2.57
2022-09-19T21:50:56.977Z,3.23
2022-09-19T21:53:24.725Z,3.10
2022-09-19T21:55:54.952Z,2.30
2022-09-19T21:58:23.340Z,2.60
2022-09-19T22:00:51.586Z,2.80
2022-09-19T22:03:20.817Z,2.57
2022-09-19T22:05:53.528Z,2.70
2022-09-19T22:08:22.257Z,3.03
2022-09-19T22:10:50.162Z,2.63
2022-09-19T22:13:19.258Z,2.33
2022-09-19T22:15:47.008Z,2.33
2022-09-19T22:18:15.592Z,2.30
2022-09-19T22:20:43.289Z,2.83
2022-09-19T22:23:11.057Z,2.60
2022-09-19T22:25:38.774Z,3.03
2022-09-19T22:28:06.602Z,2.93
2022-09-19T22:30:36.281Z,3.33
2022-09-19T22:33:04.123Z,3.10
2022-09-19T22:35:31.902Z,3.33
2022-09-19T22:37:59.816Z,2.87
2022-09-19T22:40:29.131Z,2.33
2022-09-19T22:42:57.175Z,2.63
2022-09-19T22:45:25.217Z,3.00
2022-09-19T22:47:56.072Z,2.37
2022-09-19T22:50:23.819Z,2.23
2022-09-19T22:52:51.571Z,2.20
2022-09-19T22:55:19.370Z,2.10
2022-09-19T22:57:51.235Z,2.23
2022-09-19T23:00:19.337Z,2.17
2022-09-19T23:02:47.191Z,3.17
2022-09-19T23:05:16.514Z,2.53
2022-09-19T23:07:44.478Z,2.40
2022-09-19T23:10:13.259Z,2.40
2022-09-19T23:12:43.458Z,2.87
2022-09-19T23:15:11.647Z,2.67
2022-09-19T23:17:39.369Z,2.13
2022-09-19T23:20:08.190Z,2.80
2022-09-19T23:22:37.305Z,2.80
2022-09-19T23:25:05.596Z,2.40
2022-09-19T23:27:33.349Z,2.47
2022-09-19T23:30:01.037Z,3.20
2022-09-19T23:32:28.778Z,3.07
2022-09-19T23:34:56.530Z,3.10
2022-09-19T23:37:24.299Z,3.00
2022-09-19T23:39:53.417Z,2.73
2022-09-19T23:42:22.757Z,2.50
2022-09-19T23:44:50.647Z,2.50
2022-09-19T23:47:18.370Z,2.53
2022-09-19T23:49:46.247Z,2.80
2022-09-19T23:52:14.805Z,2.93
2022-09-19T23:54:42.746Z,2.47
2022-09-19T23:57:11.998Z,2.50
2022-09-19T23:59:39.713Z,2.57
